createdAt,value
2023-04-01T00:01:25.392Z,0.90
2023-04-01T00:03:52.935Z,0.93
2023-04-01T00:06:21.755Z,0.90
2023-04-01T00:08:49.445Z,1.00
2023-04-01T00:11:17.053Z,0.80
2023-04-01T00:13:44.492Z,0.97
2023-04-01T00:16:20.962Z,0.70
2023-04-01T00:18:49.658Z,0.90
2023-04-01T00:21:17.215Z,0.90
2023-04-01T00:23:45.991Z,0.73
2023-04-01T00:26:15.115Z,1.00
2023-04-01T00:28:43.580Z,0.90
2023-04-01T00:31:11.518Z,0.80
2023-04-01T00:33:39.287Z,1.00
2023-04-01T00:36:10.812Z,1.30
2023-04-01T00:38:38.448Z,1.10
2023-04-01T00:41:07.339Z,1.20
2023-04-01T00:43:35.398Z,1.20
2023-04-01T00:46:03.046Z,1.20
2023-04-01T00:48:32.501Z,1.70
2023-04-01T00:51:01.625Z,1.40
2023-04-01T00:53:30.150Z,1.40
2023-04-01T00:56:01.508Z,1.40
2023-04-01T00:58:31.958Z,1.20
2023-04-01T01:01:00.614Z,1.20
2023-04-01T01:03:28.377Z,1.10
2023-04-01T01:06:05.902Z,0.93
2023-04-01T01:08:41.731Z,1.17
2023-04-01T01:11:10.415Z,1.00
2023-04-01T01:13:43.317Z,0.90
2023-04-01T01:16:15.765Z,0.90
2023-04-01T01:18:46.068Z,0.80
2023-04-01T01:21:29.988Z,0.70
2023-04-01T01:24:14.054Z,1.00
2023-04-01T01:26:48.623Z,1.00
2023-04-01T01:29:20.247Z,1.20
2023-04-01T01:31:52.354Z,0.90
2023-04-01T01:34:24.075Z,0.70
2023-04-01T01:36:55.606Z,0.80
2023-04-01T01:39:28.779Z,0.73
2023-04-01T01:41:57.186Z,0.90
2023-04-01T01:44:25.210Z,0.80
2023-04-01T01:46:52.668Z,0.63
2023-04-01T01:49:20.967Z,0.80
2023-04-01T01:51:49.080Z,0.80
2023-04-01T01:54:18.877Z,0.80
2023-04-01T01:56:47.957Z,0.80
2023-04-01T01:59:16.589Z,0.80
2023-04-01T02:01:46.410Z,0.70
2023-04-01T02:04:16.489Z,0.80
2023-04-01T02:06:48.408Z,0.70
2023-04-01T02:09:16.249Z,0.80
2023-04-01T02:11:47.981Z,1.10
2023-04-01T02:14:16.572Z,0.80
2023-04-01T02:16:47.119Z,0.70
2023-04-01T02:19:15.397Z,0.90
2023-04-01T02:21:44.420Z,0.80
2023-04-01T02:24:13.918Z,0.80
2023-04-01T02:26:41.937Z,0.70
2023-04-01T02:29:11.108Z,0.80
2023-04-01T02:31:39.296Z,1.00
2023-04-01T02:34:06.970Z,0.70
2023-04-01T02:36:34.695Z,0.90
2023-04-01T02:39:03.389Z,1.00
2023-04-01T02:41:30.894Z,1.00
2023-04-01T02:43:59.459Z,0.73
2023-04-01T02:46:28.336Z,1.30
2023-04-01T02:48:55.762Z,0.90
2023-04-01T02:51:23.150Z,1.17
2023-04-01T02:53:50.529Z,1.00
2023-04-01T02:56:18.327Z,0.97
2023-04-01T02:58:45.821Z,1.00
2023-04-01T03:01:13.445Z,1.17
2023-04-01T03:03:42.436Z,0.90
2023-04-01T03:06:10.739Z,1.03
2023-04-01T03:08:38.125Z,0.97
2023-04-01T03:11:06.106Z,1.10
2023-04-01T03:13:36.001Z,1.00
2023-04-01T03:16:03.515Z,1.03
2023-04-01T03:18:31.042Z,1.23
2023-04-01T03:21:13.559Z,1.10
2023-04-01T03:23:41.018Z,1.60
2023-04-01T03:26:08.655Z,1.60
2023-04-01T03:28:36.449Z,1.00
2023-04-01T03:31:04.169Z,0.93
2023-04-01T03:33:38.554Z,1.07
2023-04-01T03:36:08.149Z,1.27
2023-04-01T03:38:35.572Z,0.90
2023-04-01T03:41:03.235Z,1.07
2023-04-01T03:43:31.361Z,1.10
2023-04-01T03:45:58.959Z,0.90
2023-04-01T03:48:27.336Z,1.17
2023-04-01T03:50:55.010Z,1.20
2023-04-01T03:53:25.602Z,1.20
2023-04-01T03:55:54.312Z,1.23
2023-04-01T03:58:21.753Z,1.00
2023-04-01T04:00:49.685Z,1.03
2023-04-01T04:03:17.176Z,1.10
2023-04-01T04:05:48.142Z,0.90
2023-04-01T04:08:16.355Z,1.03
2023-04-01T04:10:45.343Z,0.93
2023-04-01T04:13:12.740Z,0.73
2023-04-01T04:15:46.555Z,0.90
2023-04-01T04:18:13.935Z,1.00
2023-04-01T04:20:46.454Z,0.87
2023-04-01T04:23:13.957Z,1.10
2023-04-01T04:25:42.157Z,0.90
2023-04-01T04:28:11.045Z,1.10
2023-04-01T04:30:38.493Z,0.80
2023-04-01T04:33:05.927Z,0.90
2023-04-01T04:35:33.648Z,0.80
2023-04-01T04:38:02.535Z,1.20
2023-04-01T04:40:30.310Z,1.30
2023-04-01T04:42:57.724Z,1.10
2023-04-01T04:45:26.583Z,1.47
2023-04-01T04:47:57.077Z,1.00
2023-04-01T04:50:24.838Z,1.10
2023-04-01T04:52:52.411Z,1.30
2023-04-01T04:55:20.674Z,1.00
2023-04-01T04:57:52.840Z,0.97
2023-04-01T05:00:20.496Z,1.20
2023-04-01T05:02:58.286Z,0.80
2023-04-01T05:05:25.986Z,1.10
2023-04-01T05:07:53.708Z,0.90
2023-04-01T05:10:21.785Z,1.10
2023-04-01T05:12:49.211Z,0.90
2023-04-01T05:15:19.909Z,0.80
2023-04-01T05:17:47.353Z,1.07
2023-04-01T05:20:17.260Z,0.80
2023-04-01T05:22:44.944Z,0.90
2023-04-01T05:25:12.400Z,0.97
2023-04-01T05:27:39.831Z,0.93
2023-04-01T05:30:07.909Z,0.80
2023-04-01T05:32:54.154Z,0.80
2023-04-01T05:35:25.172Z,0.73
2023-04-01T05:37:52.616Z,0.80
2023-04-01T05:40:21.386Z,0.70
2023-04-01T05:42:48.829Z,0.70
2023-04-01T05:45:17.406Z,0.70
2023-04-01T05:47:50.603Z,0.73
2023-04-01T05:50:19.133Z,0.80
2023-04-01T05:52:47.978Z,0.73
2023-04-01T05:55:15.646Z,0.73
2023-04-01T05:57:43.056Z,0.80
2023-04-01T06:00:11.558Z,0.70
2023-04-01T06:02:42.882Z,0.80
2023-04-01T06:05:14.292Z,0.70
2023-04-01T06:07:41.694Z,0.70
2023-04-01T06:10:14.187Z,1.00
2023-04-01T06:12:53.626Z,0.70
2023-04-01T06:15:24.645Z,0.70
2023-04-01T06:18:03.353Z,0.60
2023-04-01T06:20:38.496Z,0.70
2023-04-01T06:23:14.964Z,0.67
2023-04-01T06:25:52.159Z,0.70
2023-04-01T06:28:40.893Z,0.80
2023-04-01T06:31:12.708Z,0.70
2023-04-01T06:33:49.051Z,0.90
2023-04-01T06:36:35.089Z,1.00
2023-04-01T06:39:09.601Z,0.90
2023-04-01T06:41:48.518Z,0.70
2023-04-01T06:44:21.392Z,0.80
2023-04-01T06:47:16.256Z,0.60
2023-04-01T06:50:07.482Z,0.63
2023-04-01T06:52:58.709Z,0.60
2023-04-01T06:55:46.985Z,1.00
2023-04-01T06:58:20.939Z,0.70
2023-04-01T07:00:50.480Z,0.63
2023-04-01T07:03:21.136Z,0.60
2023-04-01T07:05:48.846Z,0.60
2023-04-01T07:08:19.549Z,0.70
2023-04-01T07:10:49.600Z,0.77
2023-04-01T07:13:41.617Z,0.80
2023-04-01T07:16:20.418Z,0.80
2023-04-01T07:18:49.820Z,0.60
2023-04-01T07:21:22.832Z,0.70
2023-04-01T07:23:52.568Z,0.70
2023-04-01T07:26:34.045Z,0.60
2023-04-01T07:29:11.406Z,0.60
2023-04-01T07:31:50.607Z,0.60
2023-04-01T07:34:21.364Z,0.63
2023-04-01T07:36:50.378Z,0.63
2023-04-01T07:39:26.453Z,0.60
2023-04-01T07:42:17.790Z,0.50
2023-04-01T07:44:53.440Z,0.50
2023-04-01T07:47:26.632Z,0.53
2023-04-01T07:49:59.307Z,0.60
2023-04-01T07:52:29.653Z,0.70
2023-04-01T07:55:07.198Z,0.50
2023-04-01T07:57:38.621Z,0.70
2023-04-01T08:00:11.284Z,0.60
2023-04-01T08:02:46.944Z,0.83
2023-04-01T08:05:19.183Z,0.50
2023-04-01T08:07:53.184Z,0.60
2023-04-01T08:10:47.542Z,0.50
2023-04-01T08:13:39.451Z,0.40
2023-04-01T08:16:46.298Z,0.40
2023-04-01T08:19:28.067Z,0.70
2023-04-01T08:21:59.512Z,0.70
2023-04-01T08:24:37.170Z,0.67
2023-04-01T08:27:16.853Z,0.80
2023-04-01T08:29:47.966Z,0.50
2023-04-01T08:32:19.149Z,0.60
2023-04-01T08:34:52.844Z,0.40
2023-04-01T08:37:32.163Z,0.60
2023-04-01T08:40:03.547Z,0.80
2023-04-01T08:42:38.016Z,0.50
2023-04-01T08:45:31.676Z,0.63
2023-04-01T08:48:32.719Z,0.57
2023-04-01T08:51:22.699Z,0.63
2023-04-01T08:54:05.565Z,0.50
2023-04-01T08:56:35.900Z,0.70
2023-04-01T08:59:24.446Z,0.57
2023-04-01T09:02:00.863Z,0.60
2023-04-01T09:05:13.101Z,0.53
2023-04-01T09:07:46.478Z,0.70
2023-04-01T09:10:26.458Z,0.70
2023-04-01T09:13:14.891Z,0.67
2023-04-01T09:15:57.334Z,1.20
2023-04-01T09:18:35.301Z,0.70
2023-04-01T09:21:13.338Z,0.70
2023-04-01T09:23:49.687Z,0.70
2023-04-01T09:26:30.465Z,0.67
2023-04-01T09:29:01.794Z,0.67
2023-04-01T09:31:40.660Z,0.60
2023-04-01T09:34:28.010Z,0.70
2023-04-01T09:37:09.760Z,0.70
2023-04-01T09:39:39.206Z,0.50
2023-04-01T09:42:17.167Z,0.50
2023-04-01T09:45:00.147Z,0.70
2023-04-01T09:47:42.601Z,0.53
2023-04-01T09:50:27.766Z,0.60
2023-04-01T09:52:59.844Z,0.70
2023-04-01T09:55:50.939Z,0.70
2023-04-01T09:58:33.960Z,0.77
2023-04-01T10:01:47.621Z,0.77
2023-04-01T10:04:45.777Z,0.80
2023-04-01T10:07:34.532Z,0.70
2023-04-01T10:10:31.752Z,0.50
2023-04-01T10:13:11.965Z,0.70
2023-04-01T10:15:56.656Z,0.60
2023-04-01T10:18:38.994Z,0.60
2023-04-01T10:21:19.763Z,0.70
2023-04-01T10:23:54.765Z,0.50
2023-04-01T10:26:39.254Z,0.50
2023-04-01T10:29:36.767Z,0.50
2023-04-01T10:32:15.010Z,0.50
2023-04-01T10:35:03.664Z,0.70
2023-04-01T10:37:41.585Z,0.60
2023-04-01T10:40:27.287Z,0.47
2023-04-01T10:43:24.277Z,0.50
2023-04-01T10:46:18.325Z,0.60
2023-04-01T10:49:06.660Z,0.60
2023-04-01T10:51:52.627Z,0.70
2023-04-01T10:54:45.359Z,0.70
2023-04-01T10:58:02.572Z,1.10
2023-04-01T11:01:07.942Z,0.70
2023-04-01T11:04:12.809Z,0.50
2023-04-01T11:07:14.642Z,0.70
2023-04-01T11:10:17.744Z,0.60
2023-04-01T11:13:09.347Z,0.80
2023-04-01T11:15:50.707Z,1.17
2023-04-01T11:18:42.755Z,0.60
2023-04-01T11:21:36.180Z,0.60
2023-04-01T11:24:32.316Z,0.60
2023-04-01T11:27:42.492Z,0.70
2023-04-01T11:30:24.900Z,0.60
2023-04-01T11:32:55.665Z,0.60
2023-04-01T11:35:44.373Z,0.70
2023-04-01T11:38:28.736Z,0.70
2023-04-01T11:41:04.745Z,0.40
2023-04-01T11:43:55.822Z,0.70
2023-04-01T11:46:38.943Z,0.40
2023-04-01T11:49:09.839Z,0.40
2023-04-01T11:51:50.657Z,0.40
2023-04-01T11:54:26.456Z,0.47
2023-04-01T11:57:01.103Z,0.70
2023-04-01T11:59:43.724Z,0.70
2023-04-01T12:02:14.078Z,0.40
2023-04-01T12:04:55.355Z,0.60
2023-04-01T12:07:33.755Z,0.63
2023-04-01T12:10:07.781Z,0.40
2023-04-01T12:12:47.758Z,0.60
2023-04-01T12:15:22.371Z,0.70
2023-04-01T12:17:53.158Z,0.60
2023-04-01T12:20:31.571Z,0.60
2023-04-01T12:23:05.409Z,0.70
2023-04-01T12:25:45.907Z,0.73
2023-04-01T12:28:21.585Z,0.77
2023-04-01T12:30:52.834Z,0.60
2023-04-01T12:33:41.175Z,0.53
2023-04-01T12:36:15.131Z,0.53
2023-04-01T12:38:50.771Z,0.60
2023-04-01T12:41:22.323Z,0.70
2023-04-01T12:44:07.167Z,0.63
2023-04-01T12:46:38.572Z,0.70
2023-04-01T12:49:15.326Z,0.50
2023-04-01T12:51:52.424Z,0.60
2023-04-01T12:54:34.703Z,0.90
2023-04-01T12:57:09.484Z,0.70
2023-04-01T12:59:52.131Z,0.60
2023-04-01T13:02:27.945Z,0.90
2023-04-01T13:05:11.821Z,0.70
2023-04-01T13:07:51.933Z,0.70
2023-04-01T13:10:29.457Z,0.50
2023-04-01T13:13:09.759Z,0.70
2023-04-01T13:15:39.386Z,0.70
2023-04-01T13:18:13.873Z,0.53
2023-04-01T13:20:46.826Z,0.50
2023-04-01T13:23:21.090Z,0.50
2023-04-01T13:25:56.594Z,0.60
2023-04-01T13:28:31.696Z,0.60
2023-04-01T13:31:02.319Z,0.63
2023-04-01T13:33:35.220Z,0.60
2023-04-01T13:36:08.877Z,0.63
2023-04-01T13:38:46.213Z,0.60
2023-04-01T13:41:17.330Z,0.53
2023-04-01T13:43:47.584Z,0.60
2023-04-01T13:46:24.910Z,0.50
2023-04-01T13:49:10.884Z,0.63
2023-04-01T13:51:54.147Z,0.57
2023-04-01T13:54:33.465Z,0.60
2023-04-01T13:57:08.929Z,0.60
2023-04-01T13:59:55.924Z,0.40
2023-04-01T14:02:44.414Z,0.60
2023-04-01T14:05:32.315Z,0.60
2023-04-01T14:08:09.050Z,0.70
2023-04-01T14:10:41.227Z,0.47
2023-04-01T14:13:11.727Z,0.47
2023-04-01T14:15:43.514Z,0.50
2023-04-01T14:18:22.155Z,0.50
2023-04-01T14:20:53.686Z,0.47
2023-04-01T14:23:42.381Z,0.70
2023-04-01T14:26:14.140Z,0.60
2023-04-01T14:28:46.530Z,0.53
2023-04-01T14:31:25.562Z,0.50
2023-04-01T14:33:59.790Z,0.57
2023-04-01T14:36:33.631Z,0.60
2023-04-01T14:39:08.951Z,0.70
2023-04-01T14:41:41.802Z,0.70
2023-04-01T14:44:25.712Z,0.70
2023-04-01T14:47:06.645Z,0.70
2023-04-01T14:49:35.930Z,0.80
2023-04-01T14:52:11.790Z,0.60
2023-04-01T14:54:40.461Z,0.60
2023-04-01T14:57:13.113Z,0.60
2023-04-01T14:59:47.780Z,0.67
2023-04-01T15:02:24.206Z,0.90
2023-04-01T15:04:55.396Z,0.70
2023-04-01T15:07:41.719Z,0.60
2023-04-01T15:10:20.356Z,0.50
2023-04-01T15:12:54.535Z,0.40
2023-04-01T15:15:28.334Z,0.53
2023-04-01T15:18:06.039Z,0.50
2023-04-01T15:20:57.597Z,0.43
2023-04-01T15:23:33.405Z,0.50
2023-04-01T15:26:19.556Z,0.67
2023-04-01T15:28:51.901Z,0.60
2023-04-01T15:31:23.375Z,0.77
2023-04-01T15:33:56.261Z,0.63
2023-04-01T15:36:34.004Z,1.00
2023-04-01T15:39:11.417Z,0.60
2023-04-01T15:41:45.588Z,0.70
2023-04-01T15:44:44.121Z,0.67
2023-04-01T15:47:29.621Z,0.60
2023-04-01T15:49:58.966Z,0.70
2023-04-01T15:52:37.727Z,0.60
2023-04-01T15:55:13.895Z,0.70
2023-04-01T15:57:44.513Z,0.60
2023-04-01T16:00:20.929Z,0.60
2023-04-01T16:02:52.013Z,0.57
2023-04-01T16:05:29.647Z,0.70
2023-04-01T16:08:21.070Z,0.80
2023-04-01T16:10:57.867Z,0.57
2023-04-01T16:13:30.232Z,0.80
2023-04-01T16:16:03.386Z,0.70
2023-04-01T16:18:42.654Z,0.63
2023-04-01T16:21:14.036Z,0.90
2023-04-01T16:23:42.658Z,0.70
2023-04-01T16:26:11.654Z,0.70
2023-04-01T16:28:42.290Z,0.53
2023-04-01T16:31:15.417Z,0.67
2023-04-01T16:33:47.752Z,0.53
2023-04-01T16:36:22.456Z,0.70
2023-04-01T16:38:52.009Z,0.50
2023-04-01T16:41:20.854Z,0.60
2023-04-01T16:43:52.891Z,0.83
2023-04-01T16:46:33.563Z,0.70
2023-04-01T16:49:02.685Z,0.80
2023-04-01T16:51:36.307Z,0.90
2023-04-01T16:54:07.682Z,0.70
2023-04-01T16:56:39.892Z,0.70
2023-04-01T16:59:10.749Z,0.60
2023-04-01T17:01:42.862Z,0.60
2023-04-01T17:04:17.128Z,0.77
2023-04-01T17:06:47.381Z,0.60
2023-04-01T17:09:21.990Z,0.80
2023-04-01T17:11:51.848Z,0.70
2023-04-01T17:14:23.875Z,0.57
2023-04-01T17:16:57.934Z,0.60
2023-04-01T17:19:34.781Z,0.73
2023-04-01T17:22:06.291Z,0.50
2023-04-01T17:24:40.034Z,0.60
2023-04-01T17:27:12.912Z,0.67
2023-04-01T17:29:58.072Z,0.70
2023-04-01T17:32:33.865Z,0.70
2023-04-01T17:35:07.494Z,0.97
2023-04-01T17:37:42.186Z,0.50
2023-04-01T17:40:17.658Z,0.90
2023-04-01T17:42:48.764Z,0.80
2023-04-01T17:45:23.420Z,0.70
2023-04-01T17:47:56.298Z,0.90
2023-04-01T17:50:24.783Z,0.80
2023-04-01T17:52:56.921Z,0.93
2023-04-01T17:55:34.310Z,0.70
2023-04-01T17:58:04.781Z,1.10
2023-04-01T18:00:50.739Z,1.10
2023-04-01T18:03:27.322Z,0.67
2023-04-01T18:06:02.343Z,0.80
2023-04-01T18:08:39.104Z,0.80
2023-04-01T18:11:10.785Z,0.70
2023-04-01T18:13:46.455Z,1.10
2023-04-01T18:16:21.028Z,1.40
2023-04-01T18:18:56.148Z,0.80
2023-04-01T18:21:29.776Z,1.10
2023-04-01T18:24:02.411Z,1.10
2023-04-01T18:26:32.407Z,0.70
2023-04-01T18:29:01.681Z,0.80
2023-04-01T18:31:34.697Z,0.70
2023-04-01T18:34:08.321Z,0.80
2023-04-01T18:36:39.801Z,0.90
2023-04-01T18:39:10.660Z,0.70
2023-04-01T18:41:43.078Z,1.00
2023-04-01T18:44:18.141Z,0.70
2023-04-01T18:46:51.260Z,0.80
2023-04-01T18:49:23.431Z,0.80
2023-04-01T18:51:54.704Z,0.87
2023-04-01T18:54:25.166Z,0.90
2023-04-01T18:56:52.616Z,0.73
2023-04-01T18:59:24.202Z,0.80
2023-04-01T19:01:58.037Z,0.77
2023-04-01T19:04:30.295Z,0.67
2023-04-01T19:06:58.773Z,0.70
2023-04-01T19:09:28.630Z,0.60
2023-04-01T19:12:04.776Z,0.90
2023-04-01T19:14:39.191Z,0.70
2023-04-01T19:17:09.850Z,0.80
2023-04-01T19:19:44.568Z,0.70
2023-04-01T19:22:21.492Z,0.70
2023-04-01T19:24:56.417Z,0.83
2023-04-01T19:27:29.973Z,0.90
2023-04-01T19:30:04.570Z,0.80
2023-04-01T19:32:43.126Z,0.83
2023-04-01T19:35:27.008Z,1.00
2023-04-01T19:37:57.928Z,1.00
2023-04-01T19:40:34.580Z,1.03
2023-04-01T19:43:05.187Z,0.70
2023-04-01T19:45:39.871Z,1.07
2023-04-01T19:48:11.862Z,0.90
2023-04-01T19:50:42.310Z,1.93
2023-04-01T19:53:15.784Z,0.83
2023-04-01T19:55:46.424Z,1.00
2023-04-01T19:58:18.668Z,0.93
2023-04-01T20:00:49.381Z,1.20
2023-04-01T20:03:22.903Z,1.10
2023-04-01T20:06:00.135Z,1.00
2023-04-01T20:08:33.917Z,1.10
2023-04-01T20:11:08.199Z,1.03
2023-04-01T20:13:44.386Z,0.80
2023-04-01T20:16:13.857Z,0.97
2023-04-01T20:18:43.495Z,1.00
2023-04-01T20:21:21.632Z,0.83
2023-04-01T20:23:52.776Z,0.90
2023-04-01T20:26:22.717Z,1.10
2023-04-01T20:28:58.407Z,1.10
2023-04-01T20:31:27.812Z,0.90
2023-04-01T20:34:05.524Z,1.00
2023-04-01T20:36:38.026Z,1.00
2023-04-01T20:39:17.725Z,0.80
2023-04-01T20:41:51.529Z,0.83
2023-04-01T20:44:21.198Z,1.00
2023-04-01T20:46:51.258Z,1.00
2023-04-01T20:49:42.068Z,0.70
2023-04-01T20:52:19.357Z,0.90
2023-04-01T20:54:54.530Z,0.80
2023-04-01T20:57:24.012Z,0.80
2023-04-01T21:00:00.509Z,0.90
2023-04-01T21:02:34.695Z,0.90
2023-04-01T21:05:18.547Z,0.90
2023-04-01T21:07:49.500Z,1.00
2023-04-01T21:10:27.638Z,1.10
2023-04-01T21:12:58.470Z,0.90
2023-04-01T21:15:31.786Z,1.10
2023-04-01T21:18:06.287Z,1.00
2023-04-01T21:20:41.096Z,0.87
2023-04-01T21:23:22.017Z,0.90
2023-04-01T21:25:56.986Z,0.70
2023-04-01T21:28:31.189Z,0.80
2023-04-01T21:31:07.232Z,0.90
2023-04-01T21:33:39.362Z,0.90
2023-04-01T21:36:14.216Z,0.80
2023-04-01T21:38:51.303Z,0.70
2023-04-01T21:41:27.967Z,0.80
2023-04-01T21:44:05.964Z,0.67
2023-04-01T21:46:44.547Z,0.90
2023-04-01T21:49:18.680Z,0.83
2023-04-01T21:51:58.217Z,0.77
2023-04-01T21:54:37.806Z,0.80
2023-04-01T21:57:36.111Z,0.60
2023-04-01T22:00:25.764Z,0.70
2023-04-01T22:03:27.472Z,0.70
2023-04-01T22:05:58.639Z,0.60
2023-04-01T22:08:33.894Z,0.87
2023-04-01T22:11:07.194Z,1.27
2023-04-01T22:13:36.556Z,0.73
2023-04-01T22:16:10.321Z,0.67
2023-04-01T22:18:41.712Z,1.10
2023-04-01T22:21:14.025Z,1.20
2023-04-01T22:23:44.142Z,0.70
2023-04-01T22:26:17.213Z,0.60
2023-04-01T22:28:49.375Z,0.70
2023-04-01T22:31:21.144Z,0.70
2023-04-01T22:33:55.039Z,0.70
2023-04-01T22:36:27.841Z,0.70
2023-04-01T22:39:01.647Z,0.60
2023-04-01T22:41:36.876Z,0.60
2023-04-01T22:44:04.323Z,0.70
2023-04-01T22:46:42.127Z,0.83
2023-04-01T22:49:17.347Z,0.90
2023-04-01T22:51:46.493Z,0.80
2023-04-01T22:54:17.418Z,0.77
2023-04-01T22:56:48.484Z,0.80
2023-04-01T22:59:17.589Z,0.97
2023-04-01T23:01:47.162Z,0.80
2023-04-01T23:04:17.377Z,0.80
2023-04-01T23:06:46.034Z,0.80
2023-04-01T23:09:14.602Z,0.90
2023-04-01T23:11:45.428Z,0.70
2023-04-01T23:14:33.482Z,0.70
2023-04-01T23:17:09.554Z,0.60
2023-04-01T23:19:39.779Z,0.73
2023-04-01T23:22:11.213Z,0.90
2023-04-01T23:24:41.078Z,0.70
2023-04-01T23:27:13.502Z,0.70
2023-04-01T23:29:43.551Z,0.70
2023-04-01T23:32:17.951Z,0.90
2023-04-01T23:34:48.482Z,0.70
2023-04-01T23:37:18.540Z,0.73
2023-04-01T23:39:47.388Z,0.70
2023-04-01T23:42:15.642Z,0.90
2023-04-01T23:44:44.189Z,0.70
2023-04-01T23:47:15.801Z,0.70
2023-04-01T23:49:48.855Z,0.70
2023-04-01T23:52:18.946Z,0.80
2023-04-01T23:54:50.278Z,0.90
2023-04-01T23:57:19.997Z,0.80
